Flugplatz Durrweiler (UL)

Hier findest Du alle Informationen zum Flugplatz Durrweiler (UL).

Informationen für Piloten zum Flugplatz Durrweiler

Hier findest Du alle relevanten Informationen, die Du als Pilot benötigst, um Durrweiler anzufliegen.

Flugplatz: Durrweiler ICAO-Code: UL Flugplatz
Frequenz Turm: 123,425 Mhz GAFOR Gebiet: 61
Frequenz Ground: 123,425 Mhz Mogas: nein
Platzrunde: W 2800 ft Landegebühr: -
Platzhöhe: Sunrise: 04:16 Uhr UTC
Pisten: 15/33 - 350 m x 45 m, GRAS Sunset: 18:44 Uhr UTC

Mitglieder, die in Durrweiler fliegen

Flugwetter am Flugplatz Durrweiler

Die METAR Information stammen aus EDSB (44.21 km entfernt).

METAR Code:
2022/06/08 16:50
EDSB 081650Z 20012KT 9999 FEW008 SCT028 BKN030 16/14 Q1009

Flugschulen am Flugplatz Durrweiler

Am Flugplatz Durrweiler gibt es leider keine Flugschule.

Benachbarte Flugplätze und Flugschulen

Es gibt 15 weitere Flugplätze in einem Umkreis von 50 km um den Flugplatz Durrweiler.

Jetzt anmelden

Passwort vergessen

Umfrage Archiv

Sendet Ihr ADS-B und/oder FLARM?

Ja
83.4 %
Nein
16.6 %
Stimmen: 199 | Diskussion
Anzeige: Roland Aircraft
Statistik Alle Mitglieder

Aktuell sind 66 Besucher online, davon 2 Mitglieder und 64 Gäste.


Mitglieder online:
CL-415  Schnickes 

Anzeige: ULPower Aero Engines Anzeige: Pocket FMS